sensor_id;sensor_type;location;lat;lon;timestamp;temperature;humidity
66722;SHT31;53633;49.932;10.884;2022-10-15T00:00:04;14.24;95.89
66722;SHT31;53633;49.932;10.884;2022-10-15T00:02:31;14.22;96.08
66722;SHT31;53633;49.932;10.884;2022-10-15T00:04:58;14.21;96.13
66722;SHT31;53633;49.932;10.884;2022-10-15T00:07:24;14.29;95.81
66722;SHT31;53633;49.932;10.884;2022-10-15T00:09:51;14.18;96.42
66722;SHT31;53633;49.932;10.884;2022-10-15T00:12:18;14.10;96.68
66722;SHT31;53633;49.932;10.884;2022-10-15T00:14:45;14.03;97.13
66722;SHT31;53633;49.932;10.884;2022-10-15T00:17:13;14.00;97.38
66722;SHT31;53633;49.932;10.884;2022-10-15T00:19:39;14.01;97.31
66722;SHT31;53633;49.932;10.884;2022-10-15T00:22:06;13.97;97.48
66722;SHT31;53633;49.932;10.884;2022-10-15T00:24:33;14.00;97.65
66722;SHT31;53633;49.932;10.884;2022-10-15T00:26:59;14.01;97.68
66722;SHT31;53633;49.932;10.884;2022-10-15T00:29:26;13.98;97.68
66722;SHT31;53633;49.932;10.884;2022-10-15T00:31:56;14.01;97.67
66722;SHT31;53633;49.932;10.884;2022-10-15T00:34:24;14.01;97.71
66722;SHT31;53633;49.932;10.884;2022-10-15T00:36:50;14.00;97.70
66722;SHT31;53633;49.932;10.884;2022-10-15T00:39:17;14.03;97.79
66722;SHT31;53633;49.932;10.884;2022-10-15T00:41:44;14.03;97.74
66722;SHT31;53633;49.932;10.884;2022-10-15T00:44:46;14.07;97.70
66722;SHT31;53633;49.932;10.884;2022-10-15T00:47:16;14.05;97.69
66722;SHT31;53633;49.932;10.884;2022-10-15T00:49:48;14.10;97.48
66722;SHT31;53633;49.932;10.884;2022-10-15T00:52:18;14.07;97.51
66722;SHT31;53633;49.932;10.884;2022-10-15T00:54:49;14.07;97.44
66722;SHT31;53633;49.932;10.884;2022-10-15T00:57:17;14.07;97.33
66722;SHT31;53633;49.932;10.884;2022-10-15T00:59:46;14.07;97.39
66722;SHT31;53633;49.932;10.884;2022-10-15T01:02:16;14.13;97.26
66722;SHT31;53633;49.932;10.884;2022-10-15T01:04:45;14.18;97.13
66722;SHT31;53633;49.932;10.884;2022-10-15T01:07:12;14.14;97.24
66722;SHT31;53633;49.932;10.884;2022-10-15T01:09:40;14.08;97.42
66722;SHT31;53633;49.932;10.884;2022-10-15T01:12:13;14.07;97.43
66722;SHT31;53633;49.932;10.884;2022-10-15T01:14:48;14.07;97.47
66722;SHT31;53633;49.932;10.884;2022-10-15T01:17:20;14.01;97.51
66722;SHT31;53633;49.932;10.884;2022-10-15T01:20:12;14.07;97.30
66722;SHT31;53633;49.932;10.884;2022-10-15T01:22:59;14.11;97.09
66722;SHT31;53633;49.932;10.884;2022-10-15T01:25:40;14.15;97.13
66722;SHT31;53633;49.932;10.884;2022-10-15T01:28:23;14.15;97.25
66722;SHT31;53633;49.932;10.884;2022-10-15T01:31:02;14.14;97.10
66722;SHT31;53633;49.932;10.884;2022-10-15T01:33:36;14.08;97.42
66722;SHT31;53633;49.932;10.884;2022-10-15T01:36:13;14.14;97.19
66722;SHT31;53633;49.932;10.884;2022-10-15T01:38:48;14.15;97.05
66722;SHT31;53633;49.932;10.884;2022-10-15T01:41:21;14.13;97.25
66722;SHT31;53633;49.932;10.884;2022-10-15T01:43:58;14.10;97.45
66722;SHT31;53633;49.932;10.884;2022-10-15T01:46:30;14.08;97.38
66722;SHT31;53633;49.932;10.884;2022-10-15T01:49:00;14.05;97.45
66722;SHT31;53633;49.932;10.884;2022-10-15T01:51:28;14.05;97.31
66722;SHT31;53633;49.932;10.884;2022-10-15T01:53:56;14.08;97.29
66722;SHT31;53633;49.932;10.884;2022-10-15T01:56:25;14.11;97.16
66722;SHT31;53633;49.932;10.884;2022-10-15T01:58:53;14.13;97.28
66722;SHT31;53633;49.932;10.884;2022-10-15T02:01:21;14.20;96.96
66722;SHT31;53633;49.932;10.884;2022-10-15T02:03:50;14.20;97.14
66722;SHT31;53633;49.932;10.884;2022-10-15T02:06:22;14.17;97.12
66722;SHT31;53633;49.932;10.884;2022-10-15T02:09:00;14.14;97.28
66722;SHT31;53633;49.932;10.884;2022-10-15T02:11:28;14.13;97.44
66722;SHT31;53633;49.932;10.884;2022-10-15T02:14:00;14.17;97.25
66722;SHT31;53633;49.932;10.884;2022-10-15T02:16:30;14.13;97.55
66722;SHT31;53633;49.932;10.884;2022-10-15T02:19:05;14.11;97.68
66722;SHT31;53633;49.932;10.884;2022-10-15T02:21:37;14.08;97.83
66722;SHT31;53633;49.932;10.884;2022-10-15T02:24:07;14.05;97.88
66722;SHT31;53633;49.932;10.884;2022-10-15T02:26:36;14.04;97.81
66722;SHT31;53633;49.932;10.884;2022-10-15T02:29:06;14.07;97.79
66722;SHT31;53633;49.932;10.884;2022-10-15T02:31:34;14.03;97.90
66722;SHT31;53633;49.932;10.884;2022-10-15T02:34:05;14.04;97.95
66722;SHT31;53633;49.932;10.884;2022-10-15T02:36:33;14.07;98.01
66722;SHT31;53633;49.932;10.884;2022-10-15T02:39:01;14.05;97.97
66722;SHT31;53633;49.932;10.884;2022-10-15T02:41:29;14.08;97.81
66722;SHT31;53633;49.932;10.884;2022-10-15T02:43:55;14.03;98.16
66722;SHT31;53633;49.932;10.884;2022-10-15T02:46:22;14.07;98.12
66722;SHT31;53633;49.932;10.884;2022-10-15T02:48:55;14.04;98.25
66722;SHT31;53633;49.932;10.884;2022-10-15T02:51:23;14.04;98.16
66722;SHT31;53633;49.932;10.884;2022-10-15T02:53:50;14.05;98.24
66722;SHT31;53633;49.932;10.884;2022-10-15T02:56:17;14.08;98.03
66722;SHT31;53633;49.932;10.884;2022-10-15T02:58:43;14.05;98.26
66722;SHT31;53633;49.932;10.884;2022-10-15T03:01:10;14.05;98.26
66722;SHT31;53633;49.932;10.884;2022-10-15T03:03:36;14.10;98.19
66722;SHT31;53633;49.932;10.884;2022-10-15T03:06:03;14.08;98.33
66722;SHT31;53633;49.932;10.884;2022-10-15T03:08:31;14.08;98.50
66722;SHT31;53633;49.932;10.884;2022-10-15T03:10:58;14.07;98.41
66722;SHT31;53633;49.932;10.884;2022-10-15T03:13:25;14.03;98.46
66722;SHT31;53633;49.932;10.884;2022-10-15T03:15:51;14.04;98.58
66722;SHT31;53633;49.932;10.884;2022-10-15T03:18:18;14.10;98.36
66722;SHT31;53633;49.932;10.884;2022-10-15T03:20:52;14.01;98.96
66722;SHT31;53633;49.932;10.884;2022-10-15T03:23:18;14.05;98.66
66722;SHT31;53633;49.932;10.884;2022-10-15T03:25:47;14.01;98.70
66722;SHT31;53633;49.932;10.884;2022-10-15T03:28:14;14.03;98.69
66722;SHT31;53633;49.932;10.884;2022-10-15T03:30:41;14.00;98.63
66722;SHT31;53633;49.932;10.884;2022-10-15T03:33:08;13.98;98.67
66722;SHT31;53633;49.932;10.884;2022-10-15T03:35:35;14.03;98.70
66722;SHT31;53633;49.932;10.884;2022-10-15T03:38:02;14.04;98.60
66722;SHT31;53633;49.932;10.884;2022-10-15T03:40:28;14.05;98.66
66722;SHT31;53633;49.932;10.884;2022-10-15T03:42:56;14.03;98.72
66722;SHT31;53633;49.932;10.884;2022-10-15T03:45:23;14.04;98.84
66722;SHT31;53633;49.932;10.884;2022-10-15T03:47:50;14.07;98.62
66722;SHT31;53633;49.932;10.884;2022-10-15T03:50:17;14.05;98.65
66722;SHT31;53633;49.932;10.884;2022-10-15T03:52:43;14.00;98.82
66722;SHT31;53633;49.932;10.884;2022-10-15T03:55:10;14.00;98.77
66722;SHT31;53633;49.932;10.884;2022-10-15T03:57:37;13.98;98.97
66722;SHT31;53633;49.932;10.884;2022-10-15T04:00:08;13.97;99.03
66722;SHT31;53633;49.932;10.884;2022-10-15T04:02:35;14.01;99.01
66722;SHT31;53633;49.932;10.884;2022-10-15T04:05:01;14.00;98.92
66722;SHT31;53633;49.932;10.884;2022-10-15T04:07:28;14.00;99.10
66722;SHT31;53633;49.932;10.884;2022-10-15T04:09:54;14.00;99.06
66722;SHT31;53633;49.932;10.884;2022-10-15T04:12:21;14.05;99.08
66722;SHT31;53633;49.932;10.884;2022-10-15T04:14:48;14.03;99.08
66722;SHT31;53633;49.932;10.884;2022-10-15T04:17:16;14.07;98.99
66722;SHT31;53633;49.932;10.884;2022-10-15T04:19:47;14.07;98.91
66722;SHT31;53633;49.932;10.884;2022-10-15T04:22:13;14.00;99.38
66722;SHT31;53633;49.932;10.884;2022-10-15T04:24:40;14.03;99.49
66722;SHT31;53633;49.932;10.884;2022-10-15T04:27:06;14.04;99.48
66722;SHT31;53633;49.932;10.884;2022-10-15T04:29:33;14.01;99.25
66722;SHT31;53633;49.932;10.884;2022-10-15T04:31:59;13.98;99.44
66722;SHT31;53633;49.932;10.884;2022-10-15T04:34:27;13.97;99.41
66722;SHT31;53633;49.932;10.884;2022-10-15T04:36:54;14.01;99.49
66722;SHT31;53633;49.932;10.884;2022-10-15T04:39:21;14.00;99.95
66722;SHT31;53633;49.932;10.884;2022-10-15T04:41:47;14.04;99.81
66722;SHT31;53633;49.932;10.884;2022-10-15T04:44:14;14.08;99.20
66722;SHT31;53633;49.932;10.884;2022-10-15T04:46:40;14.07;99.19
66722;SHT31;53633;49.932;10.884;2022-10-15T04:49:07;14.05;99.22
66722;SHT31;53633;49.932;10.884;2022-10-15T04:51:35;14.07;99.30
66722;SHT31;53633;49.932;10.884;2022-10-15T04:54:02;14.07;99.11
66722;SHT31;53633;49.932;10.884;2022-10-15T04:56:28;14.08;99.15
66722;SHT31;53633;49.932;10.884;2022-10-15T04:58:55;14.07;99.23
66722;SHT31;53633;49.932;10.884;2022-10-15T05:01:22;14.10;99.20
66722;SHT31;53633;49.932;10.884;2022-10-15T05:03:48;14.11;99.27
66722;SHT31;53633;49.932;10.884;2022-10-15T05:06:17;14.20;98.98
66722;SHT31;53633;49.932;10.884;2022-10-15T05:08:46;14.22;98.57
66722;SHT31;53633;49.932;10.884;2022-10-15T05:11:14;14.28;98.44
66722;SHT31;53633;49.932;10.884;2022-10-15T05:13:42;14.35;97.91
66722;SHT31;53633;49.932;10.884;2022-10-15T05:16:10;14.28;98.30
66722;SHT31;53633;49.932;10.884;2022-10-15T05:18:37;14.24;98.62
66722;SHT31;53633;49.932;10.884;2022-10-15T05:21:04;14.18;98.77
66722;SHT31;53633;49.932;10.884;2022-10-15T05:23:31;14.18;98.79
66722;SHT31;53633;49.932;10.884;2022-10-15T05:26:00;14.14;98.90
66722;SHT31;53633;49.932;10.884;2022-10-15T05:28:26;14.31;98.18
66722;SHT31;53633;49.932;10.884;2022-10-15T05:30:53;14.28;98.27
66722;SHT31;53633;49.932;10.884;2022-10-15T05:33:19;14.26;98.42
66722;SHT31;53633;49.932;10.884;2022-10-15T05:35:46;14.24;98.77
66722;SHT31;53633;49.932;10.884;2022-10-15T05:38:12;14.41;97.78
66722;SHT31;53633;49.932;10.884;2022-10-15T05:40:39;14.46;97.56
66722;SHT31;53633;49.932;10.884;2022-10-15T05:43:07;14.41;97.94
66722;SHT31;53633;49.932;10.884;2022-10-15T05:45:33;14.45;97.60
66722;SHT31;53633;49.932;10.884;2022-10-15T05:48:00;14.32;98.19
66722;SHT31;53633;49.932;10.884;2022-10-15T05:50:27;14.26;98.65
66722;SHT31;53633;49.932;10.884;2022-10-15T05:52:53;14.22;98.90
66722;SHT31;53633;49.932;10.884;2022-10-15T05:55:20;14.29;98.65
66722;SHT31;53633;49.932;10.884;2022-10-15T05:57:46;14.43;97.89
66722;SHT31;53633;49.932;10.884;2022-10-15T06:00:15;14.34;98.47
66722;SHT31;53633;49.932;10.884;2022-10-15T06:02:41;14.25;98.59
66722;SHT31;53633;49.932;10.884;2022-10-15T06:05:08;14.24;98.87
66722;SHT31;53633;49.932;10.884;2022-10-15T06:07:35;14.20;99.06
66722;SHT31;53633;49.932;10.884;2022-10-15T06:10:02;14.21;99.11
66722;SHT31;53633;49.932;10.884;2022-10-15T06:12:28;14.28;98.92
66722;SHT31;53633;49.932;10.884;2022-10-15T06:14:55;14.29;98.89
66722;SHT31;53633;49.932;10.884;2022-10-15T06:17:23;14.29;99.10
66722;SHT31;53633;49.932;10.884;2022-10-15T06:19:50;14.36;98.85
66722;SHT31;53633;49.932;10.884;2022-10-15T06:22:22;14.32;98.99
66722;SHT31;53633;49.932;10.884;2022-10-15T06:24:49;14.31;99.02
66722;SHT31;53633;49.932;10.884;2022-10-15T06:27:15;14.31;99.16
66722;SHT31;53633;49.932;10.884;2022-10-15T06:29:42;14.26;99.29
66722;SHT31;53633;49.932;10.884;2022-10-15T06:32:08;14.28;99.43
66722;SHT31;53633;49.932;10.884;2022-10-15T06:34:37;14.31;99.38
66722;SHT31;53633;49.932;10.884;2022-10-15T06:37:03;14.31;99.43
66722;SHT31;53633;49.932;10.884;2022-10-15T06:39:30;14.35;99.40
66722;SHT31;53633;49.932;10.884;2022-10-15T06:41:56;14.39;99.11
66722;SHT31;53633;49.932;10.884;2022-10-15T06:44:23;14.43;99.35
66722;SHT31;53633;49.932;10.884;2022-10-15T06:46:49;14.46;99.26
66722;SHT31;53633;49.932;10.884;2022-10-15T06:49:16;14.52;99.12
66722;SHT31;53633;49.932;10.884;2022-10-15T06:51:44;14.59;98.82
66722;SHT31;53633;49.932;10.884;2022-10-15T06:54:11;14.66;99.01
66722;SHT31;53633;49.932;10.884;2022-10-15T06:56:37;14.59;98.88
66722;SHT31;53633;49.932;10.884;2022-10-15T06:59:04;14.68;99.05
66722;SHT31;53633;49.932;10.884;2022-10-15T07:01:30;14.70;98.90
66722;SHT31;53633;49.932;10.884;2022-10-15T07:03:57;14.70;98.89
66722;SHT31;53633;49.932;10.884;2022-10-15T07:06:24;14.75;98.64
66722;SHT31;53633;49.932;10.884;2022-10-15T07:08:52;14.87;98.87
66722;SHT31;53633;49.932;10.884;2022-10-15T07:11:19;14.96;98.93
66722;SHT31;53633;49.932;10.884;2022-10-15T07:13:45;15.01;98.83
66722;SHT31;53633;49.932;10.884;2022-10-15T07:16:12;15.11;98.19
66722;SHT31;53633;49.932;10.884;2022-10-15T07:18:39;15.20;98.31
66722;SHT31;53633;49.932;10.884;2022-10-15T07:21:06;15.28;98.28
66722;SHT31;53633;49.932;10.884;2022-10-15T07:23:33;15.36;97.90
66722;SHT31;53633;49.932;10.884;2022-10-15T07:26:01;15.44;97.69
66722;SHT31;53633;49.932;10.884;2022-10-15T07:28:28;15.58;97.56
66722;SHT31;53633;49.932;10.884;2022-10-15T07:30:59;15.70;97.05
66722;SHT31;53633;49.932;10.884;2022-10-15T07:33:26;15.85;97.00
66722;SHT31;53633;49.932;10.884;2022-10-15T07:36:02;15.97;96.61
66722;SHT31;53633;49.932;10.884;2022-10-15T07:38:28;16.06;96.13
66722;SHT31;53633;49.932;10.884;2022-10-15T07:40:57;16.11;95.90
66722;SHT31;53633;49.932;10.884;2022-10-15T07:43:25;16.13;95.84
66722;SHT31;53633;49.932;10.884;2022-10-15T07:45:51;16.10;95.02
66722;SHT31;53633;49.932;10.884;2022-10-15T07:48:18;16.06;95.56
66722;SHT31;53633;49.932;10.884;2022-10-15T07:50:45;16.06;94.80
66722;SHT31;53633;49.932;10.884;2022-10-15T07:53:11;16.10;94.83
66722;SHT31;53633;49.932;10.884;2022-10-15T07:55:38;15.87;95.25
66722;SHT31;53633;49.932;10.884;2022-10-15T07:58:04;15.82;95.82
66722;SHT31;53633;49.932;10.884;2022-10-15T08:00:32;15.87;95.66
66722;SHT31;53633;49.932;10.884;2022-10-15T08:02:59;15.87;95.56
66722;SHT31;53633;49.932;10.884;2022-10-15T08:05:26;15.83;95.62
66722;SHT31;53633;49.932;10.884;2022-10-15T08:07:52;15.92;95.35
66722;SHT31;53633;49.932;10.884;2022-10-15T08:10:19;15.94;94.56
66722;SHT31;53633;49.932;10.884;2022-10-15T08:12:45;15.94;94.96
66722;SHT31;53633;49.932;10.884;2022-10-15T08:15:12;16.04;94.11
66722;SHT31;53633;49.932;10.884;2022-10-15T08:17:40;16.10;93.56
66722;SHT31;53633;49.932;10.884;2022-10-15T08:20:07;16.07;93.85
66722;SHT31;53633;49.932;10.884;2022-10-15T08:22:34;16.10;93.87
66722;SHT31;53633;49.932;10.884;2022-10-15T08:25:05;16.14;93.68
66722;SHT31;53633;49.932;10.884;2022-10-15T08:27:32;16.24;93.39
66722;SHT31;53633;49.932;10.884;2022-10-15T08:29:58;16.21;94.61
66722;SHT31;53633;49.932;10.884;2022-10-15T08:32:25;16.28;93.77
66722;SHT31;53633;49.932;10.884;2022-10-15T08:34:53;16.37;93.47
66722;SHT31;53633;49.932;10.884;2022-10-15T08:37:20;16.34;94.49
66722;SHT31;53633;49.932;10.884;2022-10-15T08:39:46;16.40;94.09
66722;SHT31;53633;49.932;10.884;2022-10-15T08:42:16;16.45;94.21
66722;SHT31;53633;49.932;10.884;2022-10-15T08:44:46;16.48;93.66
66722;SHT31;53633;49.932;10.884;2022-10-15T08:47:26;16.47;92.76
66722;SHT31;53633;49.932;10.884;2022-10-15T08:50:10;16.41;93.60
66722;SHT31;53633;49.932;10.884;2022-10-15T08:52:40;16.51;92.87
66722;SHT31;53633;49.932;10.884;2022-10-15T08:55:09;16.61;93.65
66722;SHT31;53633;49.932;10.884;2022-10-15T08:57:40;16.68;92.46
66722;SHT31;53633;49.932;10.884;2022-10-15T09:00:12;16.79;93.32
66722;SHT31;53633;49.932;10.884;2022-10-15T09:02:45;16.80;93.37
66722;SHT31;53633;49.932;10.884;2022-10-15T09:05:26;16.93;92.46
66722;SHT31;53633;49.932;10.884;2022-10-15T09:07:58;17.07;92.70
66722;SHT31;53633;49.932;10.884;2022-10-15T09:10:32;17.03;90.91
66722;SHT31;53633;49.932;10.884;2022-10-15T09:13:04;17.10;91.69
66722;SHT31;53633;49.932;10.884;2022-10-15T09:15:47;17.12;91.53
66722;SHT31;53633;49.932;10.884;2022-10-15T09:18:19;17.22;90.70
66722;SHT31;53633;49.932;10.884;2022-10-15T09:20:48;17.41;91.54
66722;SHT31;53633;49.932;10.884;2022-10-15T09:23:17;17.57;89.99
66722;SHT31;53633;49.932;10.884;2022-10-15T09:25:48;17.55;89.26
66722;SHT31;53633;49.932;10.884;2022-10-15T09:28:19;17.55;88.80
66722;SHT31;53633;49.932;10.884;2022-10-15T09:34:13;17.77;90.13
66722;SHT31;53633;49.932;10.884;2022-10-15T09:36:50;17.89;88.46
66722;SHT31;53633;49.932;10.884;2022-10-15T09:39:35;17.81;88.80
66722;SHT31;53633;49.932;10.884;2022-10-15T09:42:12;17.74;88.42
66722;SHT31;53633;49.932;10.884;2022-10-15T09:44:43;17.68;88.10
66722;SHT31;53633;49.932;10.884;2022-10-15T09:47:15;17.69;88.85
66722;SHT31;53633;49.932;10.884;2022-10-15T09:49:42;17.71;87.80
66722;SHT31;53633;49.932;10.884;2022-10-15T09:52:16;17.78;88.40
66722;SHT31;53633;49.932;10.884;2022-10-15T09:54:54;17.99;87.68
66722;SHT31;53633;49.932;10.884;2022-10-15T09:57:25;18.23;88.33
66722;SHT31;53633;49.932;10.884;2022-10-15T09:59:56;18.29;87.01
66722;SHT31;53633;49.932;10.884;2022-10-15T10:02:24;18.41;85.67
66722;SHT31;53633;49.932;10.884;2022-10-15T10:04:52;18.38;85.80
66722;SHT31;53633;49.932;10.884;2022-10-15T10:07:34;18.50;85.13
66722;SHT31;53633;49.932;10.884;2022-10-15T10:10:03;18.71;85.14
66722;SHT31;53633;49.932;10.884;2022-10-15T10:12:32;18.78;84.57
66722;SHT31;53633;49.932;10.884;2022-10-15T10:15:02;18.85;84.44
66722;SHT31;53633;49.932;10.884;2022-10-15T10:17:30;18.82;84.11
66722;SHT31;53633;49.932;10.884;2022-10-15T10:20:12;18.99;83.99
66722;SHT31;53633;49.932;10.884;2022-10-15T10:22:46;18.92;83.04
66722;SHT31;53633;49.932;10.884;2022-10-15T10:25:36;19.18;82.58
66722;SHT31;53633;49.932;10.884;2022-10-15T10:28:13;19.40;82.55
66722;SHT31;53633;49.932;10.884;2022-10-15T10:30:49;19.49;81.81
66722;SHT31;53633;49.932;10.884;2022-10-15T10:33:23;19.45;81.49
66722;SHT31;53633;49.932;10.884;2022-10-15T10:35:50;19.41;81.68
66722;SHT31;53633;49.932;10.884;2022-10-15T10:38:27;19.16;80.88
66722;SHT31;53633;49.932;10.884;2022-10-15T10:40:56;19.13;81.47
66722;SHT31;53633;49.932;10.884;2022-10-15T10:43:26;19.03;81.93
66722;SHT31;53633;49.932;10.884;2022-10-15T10:46:15;18.85;82.02
66722;SHT31;53633;49.932;10.884;2022-10-15T10:48:44;18.94;82.90
66722;SHT31;53633;49.932;10.884;2022-10-15T10:51:12;18.95;82.42
66722;SHT31;53633;49.932;10.884;2022-10-15T10:53:51;18.99;81.96
66722;SHT31;53633;49.932;10.884;2022-10-15T10:56:22;19.10;81.13
66722;SHT31;53633;49.932;10.884;2022-10-15T10:58:56;19.09;81.69
66722;SHT31;53633;49.932;10.884;2022-10-15T11:01:24;19.22;81.19
66722;SHT31;53633;49.932;10.884;2022-10-15T11:03:52;19.16;81.36
66722;SHT31;53633;49.932;10.884;2022-10-15T11:06:29;19.06;81.45
66722;SHT31;53633;49.932;10.884;2022-10-15T11:09:09;19.09;81.74
66722;SHT31;53633;49.932;10.884;2022-10-15T11:11:41;19.20;81.39
66722;SHT31;53633;49.932;10.884;2022-10-15T11:14:20;19.16;80.55
66722;SHT31;53633;49.932;10.884;2022-10-15T11:17:00;19.15;80.95
66722;SHT31;53633;49.932;10.884;2022-10-15T11:19:34;19.20;80.71
66722;SHT31;53633;49.932;10.884;2022-10-15T11:22:42;19.15;80.40
66722;SHT31;53633;49.932;10.884;2022-10-15T11:25:26;19.08;80.24
66722;SHT31;53633;49.932;10.884;2022-10-15T11:28:15;19.08;80.29
66722;SHT31;53633;49.932;10.884;2022-10-15T11:30:56;19.09;80.33
66722;SHT31;53633;49.932;10.884;2022-10-15T11:33:33;19.29;80.26
66722;SHT31;53633;49.932;10.884;2022-10-15T11:36:15;19.18;79.84
66722;SHT31;53633;49.932;10.884;2022-10-15T11:38:50;19.16;80.10
66722;SHT31;53633;49.932;10.884;2022-10-15T11:41:31;18.95;80.09
66722;SHT31;53633;49.932;10.884;2022-10-15T11:44:17;18.89;80.63
66722;SHT31;53633;49.932;10.884;2022-10-15T11:46:52;18.89;81.18
66722;SHT31;53633;49.932;10.884;2022-10-15T11:49:27;19.08;80.72
66722;SHT31;53633;49.932;10.884;2022-10-15T11:52:13;19.40;80.22
66722;SHT31;53633;49.932;10.884;2022-10-15T11:54:44;19.51;79.77
66722;SHT31;53633;49.932;10.884;2022-10-15T11:57:15;19.60;79.75
66722;SHT31;53633;49.932;10.884;2022-10-15T11:59:46;19.45;80.54
66722;SHT31;53633;49.932;10.884;2022-10-15T12:02:18;19.26;80.05
66722;SHT31;53633;49.932;10.884;2022-10-15T12:04:49;19.06;80.97
66722;SHT31;53633;49.932;10.884;2022-10-15T12:07:21;19.27;81.11
66722;SHT31;53633;49.932;10.884;2022-10-15T12:09:53;19.47;80.88
66722;SHT31;53633;49.932;10.884;2022-10-15T12:12:29;19.47;80.90
66722;SHT31;53633;49.932;10.884;2022-10-15T12:15:11;19.43;80.01
66722;SHT31;53633;49.932;10.884;2022-10-15T12:17:45;19.39;79.93
66722;SHT31;53633;49.932;10.884;2022-10-15T12:20:17;19.46;79.91
66722;SHT31;53633;49.932;10.884;2022-10-15T12:22:56;19.46;79.24
66722;SHT31;53633;49.932;10.884;2022-10-15T12:25:43;19.46;79.13
66722;SHT31;53633;49.932;10.884;2022-10-15T12:28:15;19.56;78.75
66722;SHT31;53633;49.932;10.884;2022-10-15T12:30:53;19.75;78.04
66722;SHT31;53633;49.932;10.884;2022-10-15T12:33:30;19.60;79.14
66722;SHT31;53633;49.932;10.884;2022-10-15T12:35:59;19.57;77.90
66722;SHT31;53633;49.932;10.884;2022-10-15T12:38:29;19.71;78.23
66722;SHT31;53633;49.932;10.884;2022-10-15T12:40:59;19.66;78.31
66722;SHT31;53633;49.932;10.884;2022-10-15T12:43:28;19.81;78.15
66722;SHT31;53633;49.932;10.884;2022-10-15T12:45:57;19.92;77.34
66722;SHT31;53633;49.932;10.884;2022-10-15T12:48:32;19.91;77.17
66722;SHT31;53633;49.932;10.884;2022-10-15T12:54:39;19.95;77.53
66722;SHT31;53633;49.932;10.884;2022-10-15T13:00:38;19.81;78.17
66722;SHT31;53633;49.932;10.884;2022-10-15T13:03:32;19.71;78.02
66722;SHT31;53633;49.932;10.884;2022-10-15T13:06:13;19.71;78.95
66722;SHT31;53633;49.932;10.884;2022-10-15T13:08:43;19.89;78.38
66722;SHT31;53633;49.932;10.884;2022-10-15T13:11:19;19.87;78.15
66722;SHT31;53633;49.932;10.884;2022-10-15T13:13:48;19.94;78.43
66722;SHT31;53633;49.932;10.884;2022-10-15T13:16:18;20.08;78.18
66722;SHT31;53633;49.932;10.884;2022-10-15T13:18:48;19.95;77.81
66722;SHT31;53633;49.932;10.884;2022-10-15T13:21:15;19.87;78.53
66722;SHT31;53633;49.932;10.884;2022-10-15T13:23:44;19.74;78.35
66722;SHT31;53633;49.932;10.884;2022-10-15T13:26:17;19.57;79.49
66722;SHT31;53633;49.932;10.884;2022-10-15T13:28:46;19.49;79.72
66722;SHT31;53633;49.932;10.884;2022-10-15T13:31:18;19.43;80.01
66722;SHT31;53633;49.932;10.884;2022-10-15T13:33:51;19.27;80.61
66722;SHT31;53633;49.932;10.884;2022-10-15T13:36:21;19.30;80.95
66722;SHT31;53633;49.932;10.884;2022-10-15T13:38:53;19.29;80.63
66722;SHT31;53633;49.932;10.884;2022-10-15T13:41:28;19.39;80.89
66722;SHT31;53633;49.932;10.884;2022-10-15T13:43:56;19.29;81.06
66722;SHT31;53633;49.932;10.884;2022-10-15T13:46:25;19.22;81.22
66722;SHT31;53633;49.932;10.884;2022-10-15T13:48:57;19.23;81.61
66722;SHT31;53633;49.932;10.884;2022-10-15T13:51:28;19.19;81.90
66722;SHT31;53633;49.932;10.884;2022-10-15T13:53:57;19.20;82.98
66722;SHT31;53633;49.932;10.884;2022-10-15T13:56:26;19.06;84.52
66722;SHT31;53633;49.932;10.884;2022-10-15T13:58:53;19.10;83.29
66722;SHT31;53633;49.932;10.884;2022-10-15T14:01:22;19.08;83.16
66722;SHT31;53633;49.932;10.884;2022-10-15T14:03:50;19.20;82.86
66722;SHT31;53633;49.932;10.884;2022-10-15T14:06:19;19.24;83.51
66722;SHT31;53633;49.932;10.884;2022-10-15T14:09:18;19.23;82.00
66722;SHT31;53633;49.932;10.884;2022-10-15T14:11:45;19.16;81.34
66722;SHT31;53633;49.932;10.884;2022-10-15T14:14:30;19.20;81.11
66722;SHT31;53633;49.932;10.884;2022-10-15T14:16:58;19.27;80.98
66722;SHT31;53633;49.932;10.884;2022-10-15T14:19:27;19.29;80.93
66722;SHT31;53633;49.932;10.884;2022-10-15T14:22:00;19.34;79.76
66722;SHT31;53633;49.932;10.884;2022-10-15T14:24:30;19.24;79.17
66722;SHT31;53633;49.932;10.884;2022-10-15T14:27:06;19.16;79.28
66722;SHT31;53633;49.932;10.884;2022-10-15T14:29:39;19.12;79.17
66722;SHT31;53633;49.932;10.884;2022-10-15T14:32:22;19.12;78.84
66722;SHT31;53633;49.932;10.884;2022-10-15T14:34:51;19.16;78.61
66722;SHT31;53633;49.932;10.884;2022-10-15T14:37:30;19.19;78.31
66722;SHT31;53633;49.932;10.884;2022-10-15T14:40:11;19.24;78.22
66722;SHT31;53633;49.932;10.884;2022-10-15T14:42:40;19.29;77.79
66722;SHT31;53633;49.932;10.884;2022-10-15T14:45:13;19.22;77.90
66722;SHT31;53633;49.932;10.884;2022-10-15T14:47:44;19.16;78.21
66722;SHT31;53633;49.932;10.884;2022-10-15T14:50:14;19.15;78.60
66722;SHT31;53633;49.932;10.884;2022-10-15T14:52:43;19.16;78.93
66722;SHT31;53633;49.932;10.884;2022-10-15T14:55:15;19.16;78.80
66722;SHT31;53633;49.932;10.884;2022-10-15T14:57:43;19.19;79.07
66722;SHT31;53633;49.932;10.884;2022-10-15T15:00:14;19.13;78.91
66722;SHT31;53633;49.932;10.884;2022-10-15T15:02:42;19.13;79.25
66722;SHT31;53633;49.932;10.884;2022-10-15T15:05:19;19.05;79.34
66722;SHT31;53633;49.932;10.884;2022-10-15T15:07:46;19.08;79.30
66722;SHT31;53633;49.932;10.884;2022-10-15T15:10:13;18.94;79.04
66722;SHT31;53633;49.932;10.884;2022-10-15T15:12:42;18.85;78.72
66722;SHT31;53633;49.932;10.884;2022-10-15T15:15:12;18.87;78.92
66722;SHT31;53633;49.932;10.884;2022-10-15T15:17:39;18.69;79.36
66722;SHT31;53633;49.932;10.884;2022-10-15T15:20:06;18.67;79.59
66722;SHT31;53633;49.932;10.884;2022-10-15T15:22:35;18.67;79.76
66722;SHT31;53633;49.932;10.884;2022-10-15T15:25:06;18.65;79.73
66722;SHT31;53633;49.932;10.884;2022-10-15T15:27:36;18.55;80.21
66722;SHT31;53633;49.932;10.884;2022-10-15T15:30:04;18.48;79.95
66722;SHT31;53633;49.932;10.884;2022-10-15T15:32:32;18.53;80.06
66722;SHT31;53633;49.932;10.884;2022-10-15T15:34:58;18.48;80.39
66722;SHT31;53633;49.932;10.884;2022-10-15T15:37:25;18.45;81.05
66722;SHT31;53633;49.932;10.884;2022-10-15T15:39:53;18.48;80.43
66722;SHT31;53633;49.932;10.884;2022-10-15T15:42:21;18.38;80.45
66722;SHT31;53633;49.932;10.884;2022-10-15T15:44:49;18.34;80.70